Time;durP1;ratioP1;P1;durP2;ratioP2;P2;SDS_P1;SDS_P2;PMS_P1;PMS_P2;Temp;Humidity;BMP_temperature;BMP_pressure;BME280_temperature;BME280_humidity;BME280_pressure;Samples;Min_cycle;Max_cycle;Signal;HPM_P1;HPM_P2
2021/10/20 00:00:46;;;;;;;16.90;6.90;;;;;;;10.15;61.14;99494.80;113647;1192;97599;-70
2021/10/20 00:03:14;;;;;;;17.00;6.50;;;;;;;10.13;61.23;99495.41;113635;1193;107644;-71
2021/10/20 00:05:42;;;;;;;16.20;6.60;;;;;;;10.13;61.21;99491.70;113682;1193;97703;-71
2021/10/20 00:08:10;;;;;;;17.20;6.70;;;;;;;10.12;61.22;99489.45;113528;1192;97544;-74
2021/10/20 00:10:38;;;;;;;14.80;6.10;;;;;;;10.12;61.23;99483.44;113311;1196;111241;-71
2021/10/20 00:13:06;;;;;;;16.10;6.90;;;;;;;10.12;61.26;99483.08;113193;1193;97536;-73
2021/10/20 00:15:35;;;;;;;19.50;7.00;;;;;;;10.12;61.20;99484.69;113452;1196;107511;-72
2021/10/20 00:18:03;;;;;;;16.20;6.70;;;;;;;10.12;61.27;99485.75;113285;1196;97651;-70
2021/10/20 00:20:31;;;;;;;16.60;6.60;;;;;;;10.11;61.28;99482.23;113535;1193;97638;-69
2021/10/20 00:22:59;;;;;;;15.00;6.50;;;;;;;10.10;61.34;99483.41;113556;1192;111762;-70
2021/10/20 00:25:29;;;;;;;16.50;6.40;;;;;;;10.09;61.34;99482.03;113498;1192;97652;-72
2021/10/20 00:27:57;;;;;;;14.60;6.20;;;;;;;10.07;61.41;99480.35;113518;1192;107593;-71
2021/10/20 00:30:25;;;;;;;19.30;7.00;;;;;;;10.07;61.47;99481.27;113492;1192;97652;-72
2021/10/20 00:32:53;;;;;;;16.90;6.20;;;;;;;10.06;61.57;99479.94;113567;1192;95820;-73
2021/10/20 00:35:21;;;;;;;17.20;6.90;;;;;;;10.03;61.59;99479.35;113598;1192;110743;-72
2021/10/20 00:37:49;;;;;;;18.70;7.60;;;;;;;10.02;61.62;99480.55;113654;1193;98278;-72
2021/10/20 00:40:18;;;;;;;21.80;6.80;;;;;;;10.01;61.70;99482.01;113499;1192;107157;-72
2021/10/20 00:42:47;;;;;;;16.90;6.90;;;;;;;9.99;61.74;99476.45;113637;1192;97619;-71
2021/10/20 00:45:15;;;;;;;18.40;7.60;;;;;;;9.99;61.77;99473.24;114194;1192;98274;-73
2021/10/20 00:47:43;;;;;;;16.60;6.30;;;;;;;9.98;61.71;99471.39;113277;1193;110305;-71
2021/10/20 00:50:13;;;;;;;18.00;7.60;;;;;;;9.97;61.89;99466.10;113577;1193;97666;-70
2021/10/20 00:52:42;;;;;;;18.10;7.00;;;;;;;9.96;61.87;99462.33;113253;1193;109213;-71
2021/10/20 00:55:12;;;;;;;18.00;7.50;;;;;;;9.96;61.89;99459.44;113486;1192;97580;-71
2021/10/20 00:57:44;;;;;;;17.90;7.30;;;;;;;9.96;61.88;99453.62;113541;1192;97547;-69
2021/10/20 01:00:14;;;;;;;20.40;7.80;;;;;;;9.97;62.00;99445.77;113615;1192;111278;-72
2021/10/20 01:02:43;;;;;;;17.40;7.20;;;;;;;9.98;61.99;99441.48;113546;1193;97535;-72
2021/10/20 01:05:12;;;;;;;17.60;7.00;;;;;;;10.00;62.06;99437.95;114364;1192;107517;-71
2021/10/20 01:07:40;;;;;;;17.20;7.00;;;;;;;10.00;62.01;99433.55;113492;1193;96145;-71
2021/10/20 01:10:10;;;;;;;21.80;7.80;;;;;;;10.01;62.01;99433.64;113742;1193;95014;-71
2021/10/20 01:12:39;;;;;;;19.00;7.40;;;;;;;10.02;61.98;99427.42;113770;1193;112801;-70
2021/10/20 01:15:17;;;;;;;17.20;7.60;;;;;;;10.02;62.07;99424.38;113434;1196;97612;-72
2021/10/20 01:17:49;;;;;;;16.10;7.10;;;;;;;10.02;62.09;99418.34;113744;1193;107556;-71
2021/10/20 01:20:21;;;;;;;18.10;7.40;;;;;;;10.02;62.25;99418.84;113593;1192;96222;-71
2021/10/20 01:22:49;;;;;;;20.30;7.20;;;;;;;10.01;62.20;99419.82;113602;1193;95755;-70
2021/10/20 01:25:17;;;;;;;21.40;7.80;;;;;;;10.01;62.31;99417.89;113680;1193;111172;-69
2021/10/20 01:27:45;;;;;;;20.70;8.60;;;;;;;10.00;62.30;99417.38;113628;1193;98302;-71
2021/10/20 01:30:13;;;;;;;20.40;8.50;;;;;;;10.01;62.33;99418.94;113651;1193;106635;-70
2021/10/20 01:32:41;;;;;;;17.70;7.90;;;;;;;10.01;62.28;99424.08;113551;1186;96878;-70
2021/10/20 01:35:09;;;;;;;20.70;7.60;;;;;;;10.01;62.31;99424.09;113694;1192;97548;-71
2021/10/20 01:37:39;;;;;;;19.10;7.70;;;;;;;10.01;62.43;99416.44;113708;1193;110194;-71
2021/10/20 01:40:09;;;;;;;19.20;7.70;;;;;;;10.02;62.38;99411.42;113697;1192;95909;-70
2021/10/20 01:42:38;;;;;;;18.90;7.50;;;;;;;10.03;62.43;99407.48;113737;1192;107485;-70
2021/10/20 01:45:11;;;;;;;19.00;7.80;;;;;;;10.03;62.35;99406.57;113677;1193;97681;-70
2021/10/20 01:47:39;;;;;;;20.00;7.60;;;;;;;10.04;62.44;99408.13;113593;1193;97618;-70
2021/10/20 01:50:11;;;;;;;20.90;7.70;;;;;;;10.04;62.38;99405.98;113728;1192;111106;-70
2021/10/20 01:52:39;;;;;;;18.00;7.20;;;;;;;10.05;62.42;99409.44;113550;1193;97495;-70
2021/10/20 01:55:10;;;;;;;18.50;7.50;;;;;;;10.06;62.37;99408.15;113679;1191;107684;-71
2021/10/20 01:57:38;;;;;;;20.40;7.20;;;;;;;10.07;62.41;99406.11;113367;1193;96495;-72
2021/10/20 02:00:07;;;;;;;16.70;6.80;;;;;;;10.08;62.47;99401.84;113728;1193;97560;-71
2021/10/20 02:02:35;;;;;;;18.20;7.40;;;;;;;10.08;62.44;99397.39;113724;1193;111145;-71
2021/10/20 02:05:05;;;;;;;17.10;7.30;;;;;;;10.10;62.50;99386.46;113753;1194;97794;-72
2021/10/20 02:07:33;;;;;;;17.50;7.30;;;;;;;10.08;62.45;99373.44;113758;1193;109464;-73
2021/10/20 02:10:06;;;;;;;20.50;7.40;;;;;;;10.10;62.47;99373.52;113786;1193;97557;-71
2021/10/20 02:12:34;;;;;;;19.70;7.90;;;;;;;10.11;62.53;99375.76;113840;1193;95116;-72
2021/10/20 02:15:03;;;;;;;17.10;6.70;;;;;;;10.12;62.54;99378.36;113833;1193;109808;-72
2021/10/20 02:17:31;;;;;;;18.80;7.90;;;;;;;10.14;62.56;99384.45;113800;1193;97561;-72
2021/10/20 02:19:59;;;;;;;18.50;7.80;;;;;;;10.14;62.48;99379.31;113754;1192;107450;-72
2021/10/20 02:22:28;;;;;;;17.30;7.30;;;;;;;10.14;62.50;99377.88;113786;1193;97573;-72
2021/10/20 02:24:56;;;;;;;21.20;7.80;;;;;;;10.16;62.53;99376.55;113499;1193;95167;-71
2021/10/20 02:27:23;;;;;;;18.00;7.40;;;;;;;10.15;62.57;99376.02;113716;1193;111200;-75
2021/10/20 02:29:51;;;;;;;18.70;7.90;;;;;;;10.16;62.59;99379.34;113709;1193;97647;-73
2021/10/20 02:32:19;;;;;;;15.90;6.70;;;;;;;10.17;62.51;99375.59;113716;1194;107475;-73
2021/10/20 02:34:47;;;;;;;15.80;6.30;;;;;;;10.17;62.46;99374.13;113684;1193;97572;-72
2021/10/20 02:37:15;;;;;;;17.10;6.90;;;;;;;10.18;62.55;99368.73;113799;1192;95023;-72
2021/10/20 02:39:43;;;;;;;18.60;7.20;;;;;;;10.19;62.50;99360.90;113790;1192;111224;-72
2021/10/20 02:42:11;;;;;;;19.70;7.40;;;;;;;10.18;62.47;99357.06;113769;1193;95716;-73
2021/10/20 02:44:39;;;;;;;17.10;7.00;;;;;;;10.18;62.51;99358.29;113819;1193;107479;-73
2021/10/20 02:47:07;;;;;;;16.70;7.70;;;;;;;10.19;62.59;99354.65;113497;1193;97621;-73
2021/10/20 02:49:35;;;;;;;16.90;7.30;;;;;;;10.20;62.45;99357.77;113846;1177;95032;-72
2021/10/20 02:52:05;;;;;;;17.50;6.90;;;;;;;10.21;62.54;99354.89;113794;1192;111145;-73
2021/10/20 02:54:33;;;;;;;16.20;7.20;;;;;;;10.22;62.51;99359.61;113854;1193;95032;-73
2021/10/20 02:57:02;;;;;;;19.00;7.50;;;;;;;10.23;62.56;99357.10;113830;1193;107436;-73
2021/10/20 02:59:31;;;;;;;19.10;6.90;;;;;;;10.23;62.54;99354.39;113799;1193;97553;-73
2021/10/20 03:01:58;;;;;;;19.80;8.00;;;;;;;10.25;62.56;99353.61;113912;1193;97586;-72
2021/10/20 03:04:29;;;;;;;17.50;7.20;;;;;;;10.25;62.55;99358.88;113925;1193;111212;-71
2021/10/20 03:06:58;;;;;;;21.50;7.10;;;;;;;10.27;62.46;99357.13;113842;1193;95706;-70
2021/10/20 03:09:26;;;;;;;17.90;7.30;;;;;;;10.29;62.60;99360.60;113797;1193;107615;-71
2021/10/20 03:11:53;;;;;;;19.10;7.80;;;;;;;10.30;62.55;99350.09;113726;1177;97541;-72
2021/10/20 03:14:21;;;;;;;17.40;6.90;;;;;;;10.31;62.54;99351.92;113944;1194;98069;-71
2021/10/20 03:16:49;;;;;;;20.10;7.30;;;;;;;10.33;62.51;99361.75;113597;1193;111294;-69
2021/10/20 03:19:17;;;;;;;17.50;6.40;;;;;;;10.34;62.44;99356.55;113913;1193;97561;-69
2021/10/20 03:21:45;;;;;;;15.80;6.50;;;;;;;10.35;62.56;99345.67;113877;1192;107980;-67
2021/10/20 03:24:14;;;;;;;18.70;6.90;;;;;;;10.35;62.53;99347.06;113917;1194;97650;-70
2021/10/20 03:26:43;;;;;;;17.90;6.40;;;;;;;10.37;62.51;99345.69;113967;1197;97504;-70
2021/10/20 03:29:11;;;;;;;18.00;7.30;;;;;;;10.39;62.40;99342.38;113906;1193;110261;-72
2021/10/20 03:31:39;;;;;;;18.10;6.70;;;;;;;10.40;62.43;99343.36;113945;1193;97625;-72
2021/10/20 03:34:07;;;;;;;16.50;7.30;;;;;;;10.41;62.32;99336.57;113870;1193;106694;-71
2021/10/20 03:36:35;;;;;;;15.20;6.70;;;;;;;10.42;62.36;99338.45;113892;1177;97671;-72
2021/10/20 03:39:04;;;;;;;17.50;7.20;;;;;;;10.43;62.27;99334.47;113939;1193;97580;-72
2021/10/20 03:41:32;;;;;;;20.00;7.50;;;;;;;10.44;62.28;99328.23;113935;1192;110176;-74
2021/10/20 03:44:01;;;;;;;16.40;6.60;;;;;;;10.44;62.18;99317.60;113863;1192;97644;-73
2021/10/20 03:46:30;;;;;;;17.60;6.60;;;;;;;10.43;62.33;99317.32;113936;1193;106532;-71
2021/10/20 03:48:58;;;;;;;18.80;7.70;;;;;;;10.43;62.24;99321.55;113935;1193;98311;-71
2021/10/20 03:51:26;;;;;;;18.00;7.10;;;;;;;10.42;62.20;99316.27;113955;1192;97547;-72
2021/10/20 03:53:54;;;;;;;16.40;7.00;;;;;;;10.43;62.20;99315.89;113590;1193;111918;-72
2021/10/20 03:56:21;;;;;;;17.40;6.80;;;;;;;10.44;62.25;99314.96;113563;1193;97633;-73
2021/10/20 03:58:49;;;;;;;16.60;7.30;;;;;;;10.44;62.18;99306.93;113930;1193;107633;-71
2021/10/20 04:01:18;;;;;;;17.60;7.10;;;;;;;10.46;62.15;99304.91;113899;1193;96373;-73
2021/10/20 04:03:47;;;;;;;17.50;7.30;;;;;;;10.48;62.10;99307.41;113935;1192;97579;-71
2021/10/20 04:06:15;;;;;;;20.20;8.70;;;;;;;10.51;62.12;99307.39;113896;1192;110967;-68
2021/10/20 04:08:43;;;;;;;21.70;7.80;;;;;;;10.52;62.07;99305.50;113923;1193;97703;-72
2021/10/20 04:11:11;;;;;;;17.70;6.90;;;;;;;10.56;61.97;99302.97;113854;1192;107566;-72
2021/10/20 04:13:38;;;;;;;19.10;6.50;;;;;;;10.58;61.93;99299.11;113902;1193;97544;-71
2021/10/20 04:16:09;;;;;;;20.20;7.50;;;;;;;10.60;61.89;99303.02;113856;1192;97521;-70
2021/10/20 04:18:37;;;;;;;19.80;7.60;;;;;;;10.63;61.90;99295.73;113908;1192;111181;-72
2021/10/20 04:21:06;;;;;;;15.60;6.60;;;;;;;10.64;61.71;99294.40;113931;1191;97621;-71
2021/10/20 04:23:34;;;;;;;18.40;6.70;;;;;;;10.65;61.80;99300.02;113920;1192;106200;-71
2021/10/20 04:26:02;;;;;;;17.20;7.70;;;;;;;10.67;61.72;99295.48;113898;1191;97564;-70
2021/10/20 04:28:31;;;;;;;17.70;7.30;;;;;;;10.68;61.78;99296.08;113930;1193;95016;-72
2021/10/20 04:30:59;;;;;;;14.10;6.70;;;;;;;10.71;61.60;99298.56;113869;1192;111030;-72
2021/10/20 04:33:26;;;;;;;16.80;6.40;;;;;;;10.72;61.59;99288.73;113889;1193;97592;-72
2021/10/20 04:35:56;;;;;;;16.40;7.20;;;;;;;10.74;61.60;99291.29;113892;1193;108565;-73
2021/10/20 04:38:24;;;;;;;17.20;7.10;;;;;;;10.75;61.60;99297.23;113889;1193;97596;-73
2021/10/20 04:40:52;;;;;;;15.90;7.00;;;;;;;10.76;61.68;99291.81;113581;1193;97651;-73
2021/10/20 04:43:20;;;;;;;18.60;7.10;;;;;;;10.78;61.62;99281.77;113896;1192;111180;-72
2021/10/20 04:45:51;;;;;;;19.70;7.20;;;;;;;10.79;61.49;99277.64;113899;1192;97530;-71
2021/10/20 04:48:22;;;;;;;17.70;7.70;;;;;;;10.79;61.37;99276.19;113885;1193;107558;-72
2021/10/20 04:50:51;;;;;;;17.40;7.00;;;;;;;10.79;61.41;99281.71;113940;1193;97623;-72
2021/10/20 04:53:19;;;;;;;18.80;7.60;;;;;;;10.79;61.29;99283.11;113892;1193;97628;-72
2021/10/20 04:55:46;;;;;;;17.30;7.20;;;;;;;10.79;61.29;99281.13;113903;1192;111133;-72
2021/10/20 04:58:14;;;;;;;18.20;7.60;;;;;;;10.78;61.25;99278.02;113403;1193;97581;-73
2021/10/20 05:00:42;;;;;;;18.60;7.60;;;;;;;10.78;61.34;99277.52;113887;1193;107548;-74
2021/10/20 05:03:11;;;;;;;18.40;6.70;;;;;;;10.80;61.29;99267.81;113879;1193;97601;-71
2021/10/20 05:05:39;;;;;;;16.90;6.70;;;;;;;10.81;61.23;99264.88;113922;1192;97604;-73
2021/10/20 05:08:07;;;;;;;16.60;6.60;;;;;;;10.80;61.15;99261.23;113925;1192;111070;-74
2021/10/20 05:10:38;;;;;;;15.60;7.00;;;;;;;10.79;61.17;99266.06;113900;1192;97646;-74
2021/10/20 05:13:06;;;;;;;17.20;7.10;;;;;;;10.80;61.17;99260.92;113849;1193;106582;-73
2021/10/20 05:15:35;;;;;;;20.20;6.70;;;;;;;10.79;61.07;99260.06;113884;1192;95038;-73
2021/10/20 05:18:02;;;;;;;18.50;7.70;;;;;;;10.79;61.09;99257.06;113473;1192;97583;-73
2021/10/20 05:20:30;;;;;;;15.90;6.60;;;;;;;10.78;61.06;99257.27;113729;1192;111150;-73
2021/10/20 05:22:58;;;;;;;17.70;7.30;;;;;;;10.78;61.15;99248.98;113880;1192;97530;-72
2021/10/20 05:25:26;;;;;;;18.90;7.00;;;;;;;10.78;61.05;99243.62;113904;1193;107523;-72
2021/10/20 05:27:54;;;;;;;20.20;7.30;;;;;;;10.78;60.90;99245.77;113913;1192;97645;-72
2021/10/20 05:30:23;;;;;;;16.90;7.20;;;;;;;10.77;60.84;99245.13;113984;1192;98318;-75
2021/10/20 05:32:51;;;;;;;21.40;7.40;;;;;;;10.76;60.93;99239.55;113860;1193;110604;-76
2021/10/20 05:35:20;;;;;;;18.40;7.90;;;;;;;10.75;60.96;99243.10;113887;1193;97508;-75
2021/10/20 05:37:51;;;;;;;15.50;7.10;;;;;;;10.77;60.97;99244.08;113862;1192;107530;-75
2021/10/20 05:40:22;;;;;;;18.80;7.20;;;;;;;10.80;60.91;99239.44;113896;1193;97641;-74
2021/10/20 05:42:52;;;;;;;18.30;6.60;;;;;;;10.82;60.84;99234.29;113932;1192;97548;-73
2021/10/20 05:45:21;;;;;;;17.00;6.90;;;;;;;10.86;60.74;99230.09;113558;1193;111112;-74
2021/10/20 05:47:49;;;;;;;17.70;6.60;;;;;;;10.89;60.85;99226.89;113891;1192;97581;-74
2021/10/20 05:50:17;;;;;;;17.80;7.70;;;;;;;10.92;60.80;99225.41;113510;1193;107491;-74
2021/10/20 05:52:46;;;;;;;17.60;7.20;;;;;;;10.96;60.76;99220.01;113927;1193;97637;-75
2021/10/20 05:55:14;;;;;;;17.80;7.30;;;;;;;10.99;60.76;99223.33;113941;1192;95010;-74
2021/10/20 05:57:44;;;;;;;21.10;7.30;;;;;;;11.02;60.65;99219.74;113904;1193;111114;-73
2021/10/20 06:00:14;;;;;;;16.50;6.80;;;;;;;11.05;60.72;99222.04;113918;1192;97550;-73
2021/10/20 06:02:43;;;;;;;18.60;7.70;;;;;;;11.09;60.61;99224.75;113862;1192;107566;-74
2021/10/20 06:05:13;;;;;;;21.80;8.10;;;;;;;11.12;60.55;99223.30;113899;1192;96467;-74
2021/10/20 06:07:46;;;;;;;20.40;7.50;;;;;;;11.13;60.59;99222.31;113863;1193;98067;-75
2021/10/20 06:10:16;;;;;;;19.10;6.50;;;;;;;11.14;60.41;99232.39;113829;1192;111207;-74
2021/10/20 06:12:45;;;;;;;16.60;7.10;;;;;;;11.13;60.47;99230.66;113900;1192;97561;-74
2021/10/20 06:15:16;;;;;;;19.50;7.00;;;;;;;11.14;60.41;99227.91;113887;1193;106569;-74
2021/10/20 06:18:05;;;;;;;20.10;7.80;;;;;;;11.15;60.36;99229.42;113510;1193;98349;-75
2021/10/20 06:20:36;;;;;;;17.30;6.90;;;;;;;11.19;60.41;99232.04;113917;1187;97576;-74
2021/10/20 06:23:05;;;;;;;18.60;8.00;;;;;;;11.22;60.37;99236.97;113836;1192;111209;-73
2021/10/20 06:25:34;;;;;;;15.90;6.70;;;;;;;11.22;60.31;99232.67;113819;1192;95500;-72
2021/10/20 06:28:02;;;;;;;20.90;7.40;;;;;;;11.25;60.26;99237.95;113399;1193;107450;-73
2021/10/20 06:30:30;;;;;;;18.40;6.80;;;;;;;11.28;60.33;99234.91;113829;1193;95211;-72
2021/10/20 06:32:58;;;;;;;16.10;6.30;;;;;;;11.31;60.23;99235.73;113903;1193;97641;-71
2021/10/20 06:35:26;;;;;;;18.30;7.00;;;;;;;11.35;60.05;99232.64;113899;1192;110181;-72
2021/10/20 06:37:55;;;;;;;18.70;7.30;;;;;;;11.38;60.17;99232.78;113891;1193;97647;-72
2021/10/20 06:40:24;;;;;;;18.30;7.10;;;;;;;11.40;60.12;99229.98;113820;1192;108114;-73
2021/10/20 06:42:52;;;;;;;21.10;7.40;;;;;;;11.41;60.10;99238.03;113341;1193;96731;-72
2021/10/20 06:45:20;;;;;;;19.00;7.40;;;;;;;11.44;60.00;99228.97;113798;1193;97538;-72
2021/10/20 06:47:48;;;;;;;19.30;7.30;;;;;;;11.45;60.16;99232.59;113441;1193;111135;-73
2021/10/20 06:50:18;;;;;;;16.50;6.60;;;;;;;11.48;60.00;99231.85;113796;1193;95389;-73
2021/10/20 06:52:48;;;;;;;19.00;7.20;;;;;;;11.49;59.96;99233.55;113744;1192;107141;-74
2021/10/20 06:55:17;;;;;;;18.80;6.80;;;;;;;11.52;59.90;99238.49;113813;1193;97656;-73
2021/10/20 06:57:45;;;;;;;15.70;6.60;;;;;;;11.54;59.94;99238.69;113816;1193;97372;-73
2021/10/20 07:00:13;;;;;;;16.80;6.70;;;;;;;11.58;59.75;99237.68;113764;1192;111193;-74
2021/10/20 07:02:41;;;;;;;16.90;6.40;;;;;;;11.62;59.63;99241.86;113836;1192;97596;-74
2021/10/20 07:05:10;;;;;;;17.30;6.80;;;;;;;11.66;59.55;99228.75;113812;1193;107537;-75
2021/10/20 07:07:40;;;;;;;19.50;6.20;;;;;;;11.73;59.41;99228.09;113813;1192;98238;-73
2021/10/20 07:10:09;;;;;;;16.40;6.40;;;;;;;11.78;59.41;99229.65;113824;1193;98239;-73
2021/10/20 07:12:38;;;;;;;18.70;6.70;;;;;;;11.81;59.26;99229.27;113779;1192;110712;-72
2021/10/20 07:15:06;;;;;;;21.30;6.70;;;;;;;11.85;59.34;99220.44;113435;1193;97596;-75
2021/10/20 07:17:35;;;;;;;16.80;6.70;;;;;;;11.89;59.46;99225.84;113841;1193;105991;-74
2021/10/20 07:20:03;;;;;;;15.10;6.50;;;;;;;11.94;59.37;99224.18;113783;1192;97658;-74
2021/10/20 07:22:34;;;;;;;15.30;7.10;;;;;;;11.97;59.32;99218.63;113806;1193;97583;-73
2021/10/20 07:25:08;;;;;;;16.10;6.80;;;;;;;12.00;59.17;99215.96;113808;1191;110759;-75
2021/10/20 07:27:38;;;;;;;16.60;7.00;;;;;;;12.03;59.22;99217.64;113347;1193;97612;-75
2021/10/20 07:30:09;;;;;;;16.60;7.40;;;;;;;12.08;59.17;99218.94;113827;1192;108785;-75
2021/10/20 07:32:40;;;;;;;16.80;7.20;;;;;;;12.09;58.60;99220.98;113383;1193;97699;-75
2021/10/20 07:35:11;;;;;;;19.00;7.00;;;;;;;12.09;58.90;99221.88;113881;1192;97684;-74
2021/10/20 07:37:42;;;;;;;17.10;6.80;;;;;;;12.11;58.86;99228.46;113842;1193;111220;-75
2021/10/20 16:00:51;;;;;;;28.00;13.20;;;;;;;13.02;52.42;98733.13;113804;1193;106119;-75
2021/10/20 16:03:20;;;;;;;22.10;10.90;;;;;;;12.99;52.48;98726.31;113658;1193;97010;-75
2021/10/20 16:05:48;;;;;;;23.20;11.80;;;;;;;12.98;52.54;98724.61;113532;1193;97656;-74
2021/10/20 16:08:17;;;;;;;24.60;12.00;;;;;;;12.97;52.76;98725.63;113447;1192;111158;-73
2021/10/20 16:10:45;;;;;;;27.60;13.20;;;;;;;12.94;52.74;98721.87;113487;1193;95579;-75
2021/10/20 16:13:14;;;;;;;23.20;11.50;;;;;;;12.93;52.76;98724.84;113493;1192;107473;-74
2021/10/20 16:15:43;;;;;;;24.20;11.40;;;;;;;12.91;52.79;98718.95;113271;1194;95717;-75
2021/10/20 16:18:12;;;;;;;26.50;12.10;;;;;;;12.92;52.81;98720.10;113357;1193;97656;-76
2021/10/20 16:20:41;;;;;;;24.20;12.20;;;;;;;12.93;52.94;98704.23;113499;1193;110188;-75
2021/10/20 16:23:09;;;;;;;24.90;12.20;;;;;;;12.91;52.93;98700.25;113569;1193;97546;-76
2021/10/20 16:25:38;;;;;;;24.90;12.30;;;;;;;12.91;52.94;98690.34;113412;1193;107490;-73
2021/10/20 16:28:07;;;;;;;31.10;12.60;;;;;;;12.90;52.96;98686.45;113510;1193;97625;-74
2021/10/20 16:30:38;;;;;;;26.10;11.80;;;;;;;12.91;53.10;98677.70;113502;1192;95776;-74
2021/10/20 16:33:10;;;;;;;23.70;12.30;;;;;;;12.91;53.14;98682.61;113534;1193;112966;-75
2021/10/20 16:35:43;;;;;;;26.60;12.70;;;;;;;12.91;53.09;98675.50;113230;1195;97637;-74
2021/10/20 16:38:12;;;;;;;29.20;12.70;;;;;;;12.92;53.12;98669.40;113515;1193;106515;-76
2021/10/20 16:40:40;;;;;;;26.80;12.30;;;;;;;12.94;53.15;98665.33;113534;1192;95043;-74
2021/10/20 16:43:08;;;;;;;24.90;12.70;;;;;;;12.94;53.12;98670.96;113625;1193;96019;-72
2021/10/20 16:45:37;;;;;;;26.20;11.40;;;;;;;12.95;53.13;98669.63;113029;1193;111126;-71
2021/10/20 16:48:08;;;;;;;27.10;12.50;;;;;;;12.97;53.13;98665.60;113313;1193;97653;-73
2021/10/20 16:50:37;;;;;;;21.10;9.50;;;;;;;12.97;53.17;98663.77;113253;1194;105654;-72
2021/10/20 16:53:08;;;;;;;24.30;11.30;;;;;;;13.01;52.96;98665.11;113264;1194;97744;-73
2021/10/20 16:55:37;;;;;;;32.80;13.70;;;;;;;13.03;53.00;98665.93;113356;1193;97979;-71
2021/10/20 16:58:08;;;;;;;24.70;12.00;;;;;;;13.05;53.01;98673.79;113483;1193;111197;-70
2021/10/20 17:00:37;;;;;;;24.70;11.50;;;;;;;13.05;53.03;98663.81;113596;1193;97692;-72
2021/10/20 17:03:07;;;;;;;25.80;12.70;;;;;;;13.06;52.97;98667.63;113409;1193;105996;-69
2021/10/20 17:05:35;;;;;;;24.10;12.10;;;;;;;13.06;52.99;98657.99;113566;1192;98412;-68
2021/10/20 17:08:07;;;;;;;23.00;11.20;;;;;;;13.06;53.05;98666.70;113494;1192;97534;-69
